Aérodrome :
LOGIN :

S'inscrire | Disclaimer

   EN    FR    IT 

 










Légende :    VFR   VFR Marginal   IFR   IFR Intensif   IFR Très Intensif
Visi : 
Plafond : 
>= 8 km
>= 3000ft
5 à 8 km
1000 à 3000 ft
1500m à 5 km
500 à 1000 ft
800 à 1500m
200 à 500 ft
< 800m
< 200 ft
Symboles :   Orages  Brouillard  Fortes neiges  Fortes précipitations  Vent > 20 kt
SIGMETs :   Divers  Orages  Givrage  Turbulence  Onde Orograph.  Cendres Volcan.






- Altitude de l'aérodrome : 49 ft
- Code IATA : SEN


EGMC - Southend

DERNIER METAR :
  • 211050Z 00000KT 9999 BKN013 03/03 Q1042

METARs EXPIRÉS :
  • 211020Z 26002KT 9000 BKN014 03/03 Q1042
  • 210950Z 23004KT 9000 NSC 02/01 Q1042
  • 210920Z 26003KT 9000 NSC 01/01 Q1042
  • 210850Z 00000KT 9000 NSC 00/00 Q1042
  • 210820Z 28004KT 9000 NSC M01/M01 Q1042

TAF TAF EGMC
Valide du 21 à 09h jusqu'au 21 à 18h UTC


210803Z 2109/2118 30004KT 8000 NSC
PROB30 2109/2110 3000 BR
BECMG 2110/2112 CAVOK
PROB30
TEMPO 2110/2112 BKN005



MET'MAP, la Météo Aéronautique d'un coup d'oeil ! - Copyright ORBIFLY Décembre 2007 - Disclaimer

ORBIFLY MET'MAP TEAM :

Programmation & Développement : Alexandra Zaïnal
Sur une idée originale de : Baudouin d'Aumeries
Assistance à la programmation : Marc-Olivier Méhu
Soutien technique & logistique : Manuel Goepfert

Contact : metmap@orbifly.com




SOURCES & CREDITS :

   NOAA